Tremelo, Belgium
Current Conditions -  °F | °C
As of 4:20 AM on Tuesday 27 Jan 2015 (Local Time) from EBBR Reporting Station
Broken Clouds Broken Clouds  
Wind Chill: 31°   Ceiling: 2800
Heat Index: 37°   Visibility: 6mi
Dew Point: 36°   Wind: 8mph
Humidity: 93%   Direction: 280°W
Pressure: 30.24"   Gusts: NA
Location:  50.99°N, 4.71°E
Report Text: EBBR 270320Z 28007KT 9999 BKN028 03/02 Q1024 NOSIG
Loading
Personal Weather Stations






























Interactive Weather Map New forecast layout! Learn more

10-Day Weather Forecast

Advertisements
Track Severe Weather on mobile